sensor_id;sensor_type;location;lat;lon;timestamp;pressure;altitude;pressure_sealevel;temperature;humidity
70684;BME280;58263;48.146;11.440;2023-01-25T00:00:05;97110.28;;;1.60;82.18
70684;BME280;58263;48.146;11.440;2023-01-25T00:02:31;97110.69;;;1.55;82.10
70684;BME280;58263;48.146;11.440;2023-01-25T00:04:56;97102.91;;;1.54;82.51
70684;BME280;58263;48.146;11.440;2023-01-25T00:07:21;97104.44;;;1.56;82.49
70684;BME280;58263;48.146;11.440;2023-01-25T00:09:47;97095.81;;;1.54;82.50
70684;BME280;58263;48.146;11.440;2023-01-25T00:12:12;97096.22;;;1.59;82.18
70684;BME280;58263;48.146;11.440;2023-01-25T00:14:37;97096.50;;;1.56;82.54
70684;BME280;58263;48.146;11.440;2023-01-25T00:17:03;97097.03;;;1.50;82.34
70684;BME280;58263;48.146;11.440;2023-01-25T00:19:28;97104.00;;;1.51;82.64
70684;BME280;58263;48.146;11.440;2023-01-25T00:21:53;97100.97;;;1.56;82.25
70684;BME280;58263;48.146;11.440;2023-01-25T00:24:19;97101.09;;;1.54;82.21
70684;BME280;58263;48.146;11.440;2023-01-25T00:26:47;97095.94;;;1.43;82.71
70684;BME280;58263;48.146;11.440;2023-01-25T00:29:13;97099.44;;;1.53;82.30
70684;BME280;58263;48.146;11.440;2023-01-25T00:31:57;97096.06;;;1.51;82.26
70684;BME280;58263;48.146;11.440;2023-01-25T00:37:00;97095.53;;;1.47;82.51
70684;BME280;58263;48.146;11.440;2023-01-25T00:39:26;97097.03;;;1.50;82.20
70684;BME280;58263;48.146;11.440;2023-01-25T00:41:52;97093.72;;;1.48;82.28
70684;BME280;58263;48.146;11.440;2023-01-25T00:44:18;97094.28;;;1.51;82.61
70684;BME280;58263;48.146;11.440;2023-01-25T00:46:44;97090.53;;;1.54;82.49
70684;BME280;58263;48.146;11.440;2023-01-25T00:49:26;97095.09;;;1.52;82.58
70684;BME280;58263;48.146;11.440;2023-01-25T00:51:52;97086.06;;;1.55;82.53
70684;BME280;58263;48.146;11.440;2023-01-25T00:54:18;97088.28;;;1.49;83.14
70684;BME280;58263;48.146;11.440;2023-01-25T00:56:44;97082.84;;;1.51;82.79
70684;BME280;58263;48.146;11.440;2023-01-25T00:59:11;97086.09;;;1.45;82.71
70684;BME280;58263;48.146;11.440;2023-01-25T01:01:37;97085.78;;;1.48;82.74
70684;BME280;58263;48.146;11.440;2023-01-25T01:04:02;97093.88;;;1.46;82.74
70684;BME280;58263;48.146;11.440;2023-01-25T01:06:27;97088.72;;;1.45;82.90
70684;BME280;58263;48.146;11.440;2023-01-25T01:08:53;97086.91;;;1.45;83.11
70684;BME280;58263;48.146;11.440;2023-01-25T01:11:18;97089.69;;;1.34;83.33
70684;BME280;58263;48.146;11.440;2023-01-25T01:13:44;97087.88;;;1.44;83.04
70684;BME280;58263;48.146;11.440;2023-01-25T01:16:11;97083.81;;;1.50;82.81
70684;BME280;58263;48.146;11.440;2023-01-25T01:18:39;97087.72;;;1.46;82.66
70684;BME280;58263;48.146;11.440;2023-01-25T01:21:05;97096.38;;;1.48;82.94
70684;BME280;58263;48.146;11.440;2023-01-25T01:23:32;97092.75;;;1.49;82.70
70684;BME280;58263;48.146;11.440;2023-01-25T01:25:59;97090.25;;;1.47;82.80
70684;BME280;58263;48.146;11.440;2023-01-25T01:28:24;97084.25;;;1.45;82.66
70684;BME280;58263;48.146;11.440;2023-01-25T01:30:51;97087.59;;;1.38;82.56
70684;BME280;58263;48.146;11.440;2023-01-25T01:33:17;97082.72;;;1.43;82.55
70684;BME280;58263;48.146;11.440;2023-01-25T01:35:42;97074.38;;;1.38;83.14
70684;BME280;58263;48.146;11.440;2023-01-25T01:38:10;97073.25;;;1.40;82.48
70684;BME280;58263;48.146;11.440;2023-01-25T01:40:36;97062.97;;;1.37;82.70
70684;BME280;58263;48.146;11.440;2023-01-25T01:43:03;97069.50;;;1.43;82.74
70684;BME280;58263;48.146;11.440;2023-01-25T01:45:49;97075.34;;;1.46;82.52
70684;BME280;58263;48.146;11.440;2023-01-25T01:51:11;97080.22;;;1.41;82.78
70684;BME280;58263;48.146;11.440;2023-01-25T01:53:41;97079.94;;;1.44;82.33
70684;BME280;58263;48.146;11.440;2023-01-25T01:56:12;97074.13;;;1.41;82.39
70684;BME280;58263;48.146;11.440;2023-01-25T01:58:39;97074.94;;;1.41;82.74
70684;BME280;58263;48.146;11.440;2023-01-25T02:01:05;97070.47;;;1.42;83.00
70684;BME280;58263;48.146;11.440;2023-01-25T02:03:31;97074.94;;;1.41;82.75
70684;BME280;58263;48.146;11.440;2023-01-25T02:06:13;97073.25;;;1.40;82.71
70684;BME280;58263;48.146;11.440;2023-01-25T02:08:40;97069.66;;;1.41;82.54
70684;BME280;58263;48.146;11.440;2023-01-25T02:11:08;97072.72;;;1.37;82.47
70684;BME280;58263;48.146;11.440;2023-01-25T02:13:35;97071.72;;;1.38;82.66
70684;BME280;58263;48.146;11.440;2023-01-25T02:16:02;97071.31;;;1.42;82.43
70684;BME280;58263;48.146;11.440;2023-01-25T02:18:28;97076.47;;;1.44;82.27
70684;BME280;58263;48.146;11.440;2023-01-25T02:20:55;97065.19;;;1.42;82.41
70684;BME280;58263;48.146;11.440;2023-01-25T02:23:28;97066.88;;;1.43;82.43
70684;BME280;58263;48.146;11.440;2023-01-25T02:25:59;97070.47;;;1.42;82.67
70684;BME280;58263;48.146;11.440;2023-01-25T02:28:32;97063.53;;;1.41;83.03
70684;BME280;58263;48.146;11.440;2023-01-25T02:30:59;97067.81;;;1.42;82.84
70684;BME280;58263;48.146;11.440;2023-01-25T02:33:26;97068.25;;;1.37;82.76
70684;BME280;58263;48.146;11.440;2023-01-25T02:38:34;97067.69;;;1.33;83.08
70684;BME280;58263;48.146;11.440;2023-01-25T02:41:06;97065.19;;;1.42;82.72
70684;BME280;58263;48.146;11.440;2023-01-25T02:43:33;97072.16;;;1.43;82.98
70684;BME280;58263;48.146;11.440;2023-01-25T02:46:06;97071.31;;;1.42;82.92
70684;BME280;58263;48.146;11.440;2023-01-25T02:48:36;97069.94;;;1.38;82.64
70684;BME280;58263;48.146;11.440;2023-01-25T02:51:02;97059.91;;;1.42;82.71
70684;BME280;58263;48.146;11.440;2023-01-25T02:53:27;97062.00;;;1.38;82.80
70684;BME280;58263;48.146;11.440;2023-01-25T02:55:52;97054.91;;;1.39;82.55
70684;BME280;58263;48.146;11.440;2023-01-25T02:58:17;97049.63;;;1.39;82.64
70684;BME280;58263;48.146;11.440;2023-01-25T03:00:43;97049.31;;;1.42;82.76
70684;BME280;58263;48.146;11.440;2023-01-25T03:03:08;97051.00;;;1.43;82.97
70684;BME280;58263;48.146;11.440;2023-01-25T03:05:33;97062.81;;;1.39;83.24
70684;BME280;58263;48.146;11.440;2023-01-25T03:07:59;97045.88;;;1.31;83.18
70684;BME280;58263;48.146;11.440;2023-01-25T03:10:24;97059.06;;;1.41;82.94
70684;BME280;58263;48.146;11.440;2023-01-25T03:12:49;97057.84;;;1.35;83.12
70684;BME280;58263;48.146;11.440;2023-01-25T03:15:15;97051.97;;;1.42;82.92
70684;BME280;58263;48.146;11.440;2023-01-25T03:17:40;97048.38;;;1.33;82.63
70684;BME280;58263;48.146;11.440;2023-01-25T03:20:06;97047.13;;;1.37;82.81
70684;BME280;58263;48.146;11.440;2023-01-25T03:22:31;97038.09;;;1.30;82.92
70684;BME280;58263;48.146;11.440;2023-01-25T03:24:56;97030.69;;;1.33;82.83
70684;BME280;58263;48.146;11.440;2023-01-25T03:27:22;97035.72;;;1.37;82.84
70684;BME280;58263;48.146;11.440;2023-01-25T03:29:47;97034.88;;;1.36;82.62
70684;BME280;58263;48.146;11.440;2023-01-25T03:32:12;97035.97;;;1.33;82.30
70684;BME280;58263;48.146;11.440;2023-01-25T03:34:37;97045.19;;;1.39;82.31
70684;BME280;58263;48.146;11.440;2023-01-25T03:37:03;97038.50;;;1.35;82.25
70684;BME280;58263;48.146;11.440;2023-01-25T03:39:28;97041.25;;;1.33;82.31
70684;BME280;58263;48.146;11.440;2023-01-25T03:41:53;97041.56;;;1.30;82.39
70684;BME280;58263;48.146;11.440;2023-01-25T03:44:19;97033.47;;;1.32;82.13
70684;BME280;58263;48.146;11.440;2023-01-25T03:46:44;97032.78;;;1.30;82.27
70684;BME280;58263;48.146;11.440;2023-01-25T03:49:10;97033.63;;;1.30;82.11
70684;BME280;58263;48.146;11.440;2023-01-25T03:51:36;97029.44;;;1.28;82.12
70684;BME280;58263;48.146;11.440;2023-01-25T03:54:01;97027.66;;;1.28;82.35
70684;BME280;58263;48.146;11.440;2023-01-25T03:56:26;97018.88;;;1.28;82.32
70684;BME280;58263;48.146;11.440;2023-01-25T03:58:52;97022.63;;;1.25;82.38
70684;BME280;58263;48.146;11.440;2023-01-25T04:01:17;97028.06;;;1.24;82.74
70684;BME280;58263;48.146;11.440;2023-01-25T04:03:43;97022.63;;;1.25;82.73
70684;BME280;58263;48.146;11.440;2023-01-25T04:06:08;97024.88;;;1.30;82.57
70684;BME280;58263;48.146;11.440;2023-01-25T04:08:34;97026.94;;;1.26;82.55
70684;BME280;58263;48.146;11.440;2023-01-25T04:11:09;97030.69;;;1.24;82.47
70684;BME280;58263;48.146;11.440;2023-01-25T04:13:37;97022.63;;;1.25;82.52
70684;BME280;58263;48.146;11.440;2023-01-25T04:16:04;97020.97;;;1.24;82.39
70684;BME280;58263;48.146;11.440;2023-01-25T04:18:29;97026.66;;;1.20;82.52
70684;BME280;58263;48.146;11.440;2023-01-25T04:20:56;97023.22;;;1.19;82.64
70684;BME280;58263;48.146;11.440;2023-01-25T04:23:22;97021.66;;;1.26;82.77
70684;BME280;58263;48.146;11.440;2023-01-25T04:25:56;97021.66;;;1.26;82.32
70684;BME280;58263;48.146;11.440;2023-01-25T04:28:22;97021.25;;;1.21;82.68
70684;BME280;58263;48.146;11.440;2023-01-25T04:30:48;97020.28;;;1.22;82.69
70684;BME280;58263;48.146;11.440;2023-01-25T04:33:13;97017.34;;;1.25;82.45
70684;BME280;58263;48.146;11.440;2023-01-25T04:35:39;97020.97;;;1.24;82.35
70684;BME280;58263;48.146;11.440;2023-01-25T04:38:05;97017.63;;;1.22;82.26
70684;BME280;58263;48.146;11.440;2023-01-25T04:40:30;97017.50;;;1.24;82.58
70684;BME280;58263;48.146;11.440;2023-01-25T04:42:56;97020.28;;;1.22;82.01
70684;BME280;58263;48.146;11.440;2023-01-25T04:45:22;97009.03;;;1.20;82.07
70684;BME280;58263;48.146;11.440;2023-01-25T04:47:49;97001.09;;;1.20;82.50
70684;BME280;58263;48.146;11.440;2023-01-25T04:50:19;96997.59;;;1.20;82.73
70684;BME280;58263;48.146;11.440;2023-01-25T04:52:44;96994.44;;;1.16;82.88
70684;BME280;58263;48.146;11.440;2023-01-25T04:55:09;96990.53;;;1.20;82.92
70684;BME280;58263;48.146;11.440;2023-01-25T04:57:35;96992.88;;;1.23;82.76
70684;BME280;58263;48.146;11.440;2023-01-25T05:00:00;96987.31;;;1.26;82.59
70684;BME280;58263;48.146;11.440;2023-01-25T05:02:26;96993.84;;;1.22;82.78
70684;BME280;58263;48.146;11.440;2023-01-25T05:04:51;96984.81;;;1.25;82.71
70684;BME280;58263;48.146;11.440;2023-01-25T05:07:17;96987.31;;;1.26;82.82
70684;BME280;58263;48.146;11.440;2023-01-25T05:09:42;96987.16;;;1.28;82.56
70684;BME280;58263;48.146;11.440;2023-01-25T05:12:07;96982.56;;;1.30;82.00
70684;BME280;58263;48.146;11.440;2023-01-25T05:14:37;96977.28;;;1.30;81.96
70684;BME280;58263;48.146;11.440;2023-01-25T05:17:03;96976.59;;;1.28;81.86
70684;BME280;58263;48.146;11.440;2023-01-25T05:19:28;96978.69;;;1.24;81.91
70684;BME280;58263;48.146;11.440;2023-01-25T05:21:53;96975.34;;;1.22;81.74
70684;BME280;58263;48.146;11.440;2023-01-25T05:24:26;96973.41;;;1.24;82.07
70684;BME280;58263;48.146;11.440;2023-01-25T05:26:52;96972.03;;;1.20;82.21
70684;BME280;58263;48.146;11.440;2023-01-25T05:29:31;96970.63;;;1.16;82.55
70684;BME280;58263;48.146;11.440;2023-01-25T05:32:00;96964.78;;;1.22;82.41
70684;BME280;58263;48.146;11.440;2023-01-25T05:34:25;96965.59;;;1.23;82.57
70684;BME280;58263;48.146;11.440;2023-01-25T05:36:50;96966.31;;;1.25;82.71
70684;BME280;58263;48.146;11.440;2023-01-25T05:39:16;96970.06;;;1.22;82.53
70684;BME280;58263;48.146;11.440;2023-01-25T05:41:42;96977.03;;;1.23;82.79
70684;BME280;58263;48.146;11.440;2023-01-25T05:44:07;96978.81;;;1.23;82.67
70684;BME280;58263;48.146;11.440;2023-01-25T05:46:33;96977.31;;;1.20;82.48
70684;BME280;58263;48.146;11.440;2023-01-25T05:48:58;96978.69;;;1.24;82.49
70684;BME280;58263;48.146;11.440;2023-01-25T05:51:23;96986.22;;;1.19;82.76
70684;BME280;58263;48.146;11.440;2023-01-25T05:53:49;96973.00;;;1.19;82.30
70684;BME280;58263;48.146;11.440;2023-01-25T05:56:14;96977.44;;;1.18;82.95
70684;BME280;58263;48.146;11.440;2023-01-25T05:58:39;96973.00;;;1.19;82.65
70684;BME280;58263;48.146;11.440;2023-01-25T06:01:06;96982.59;;;1.20;82.28
70684;BME280;58263;48.146;11.440;2023-01-25T06:03:33;96973.97;;;1.18;81.91
70684;BME280;58263;48.146;11.440;2023-01-25T06:06:00;96964.34;;;1.17;82.34
70684;BME280;58263;48.146;11.440;2023-01-25T06:08:27;96970.63;;;1.16;82.05
70684;BME280;58263;48.146;11.440;2023-01-25T06:10:53;96971.19;;;1.20;82.34
70684;BME280;58263;48.146;11.440;2023-01-25T06:13:18;96965.88;;;1.20;82.48
70684;BME280;58263;48.146;11.440;2023-01-25T06:15:54;96963.41;;;1.18;82.77
70684;BME280;58263;48.146;11.440;2023-01-25T06:18:20;96966.75;;;1.20;83.02
70684;BME280;58263;48.146;11.440;2023-01-25T06:20:45;96964.91;;;1.21;82.80
70684;BME280;58263;48.146;11.440;2023-01-25T06:23:11;96967.41;;;1.22;82.75
70684;BME280;58263;48.146;11.440;2023-01-25T06:25:36;96954.06;;;1.24;82.88
70684;BME280;58263;48.146;11.440;2023-01-25T06:28:01;96957.41;;;1.26;82.98
70684;BME280;58263;48.146;11.440;2023-01-25T06:30:27;96955.88;;;1.23;82.59
70684;BME280;58263;48.146;11.440;2023-01-25T06:32:52;96956.56;;;1.25;82.66
70684;BME280;58263;48.146;11.440;2023-01-25T06:35:17;96950.31;;;1.26;82.52
70684;BME280;58263;48.146;11.440;2023-01-25T06:37:43;96945.59;;;1.20;82.69
70684;BME280;58263;48.146;11.440;2023-01-25T06:40:08;96949.34;;;1.27;82.13
70684;BME280;58263;48.146;11.440;2023-01-25T06:42:34;96948.34;;;1.18;82.19
70684;BME280;58263;48.146;11.440;2023-01-25T06:44:59;96951.84;;;1.19;82.55
70684;BME280;58263;48.146;11.440;2023-01-25T06:47:24;96945.31;;;1.23;82.24
70684;BME280;58263;48.146;11.440;2023-01-25T06:49:50;96940.56;;;1.17;82.51
70684;BME280;58263;48.146;11.440;2023-01-25T06:52:15;96941.13;;;1.21;82.25
70684;BME280;58263;48.146;11.440;2023-01-25T06:54:40;96938.38;;;1.12;82.74
70684;BME280;58263;48.146;11.440;2023-01-25T06:57:06;96934.19;;;1.10;82.67
70684;BME280;58263;48.146;11.440;2023-01-25T06:59:34;96937.25;;;1.15;82.44
70684;BME280;58263;48.146;11.440;2023-01-25T07:01:59;96931.28;;;1.13;82.38
70684;BME280;58263;48.146;11.440;2023-01-25T07:04:25;96932.81;;;1.06;82.71
70684;BME280;58263;48.146;11.440;2023-01-25T07:06:50;96920.44;;;0.96;82.44
70684;BME280;58263;48.146;11.440;2023-01-25T07:09:15;96918.53;;;0.89;82.76
70684;BME280;58263;48.146;11.440;2023-01-25T07:11:41;96920.91;;;0.82;82.72
70684;BME280;58263;48.146;11.440;2023-01-25T07:14:06;96922.41;;;0.84;82.87
70684;BME280;58263;48.146;11.440;2023-01-25T07:16:32;96923.13;;;0.77;82.94
70684;BME280;58263;48.146;11.440;2023-01-25T07:19:04;96923.94;;;0.87;82.79
70684;BME280;58263;48.146;11.440;2023-01-25T07:21:30;96929.22;;;0.97;82.70
70684;BME280;58263;48.146;11.440;2023-01-25T07:23:59;96925.31;;;0.91;82.33
70684;BME280;58263;48.146;11.440;2023-01-25T07:26:25;96930.03;;;0.97;81.55
70684;BME280;58263;48.146;11.440;2023-01-25T07:28:51;96921.16;;;0.98;81.34
70684;BME280;58263;48.146;11.440;2023-01-25T07:31:17;96911.69;;;0.96;81.07
70684;BME280;58263;48.146;11.440;2023-01-25T07:33:47;96914.75;;;1.01;80.94
70684;BME280;58263;48.146;11.440;2023-01-25T07:36:13;96921.00;;;1.00;80.61
70684;BME280;58263;48.146;11.440;2023-01-25T07:38:38;96907.25;;;0.96;80.73
70684;BME280;58263;48.146;11.440;2023-01-25T07:41:04;96910.16;;;0.93;81.30
70684;BME280;58263;48.146;11.440;2023-01-25T07:43:30;96914.19;;;0.97;81.04
70684;BME280;58263;48.146;11.440;2023-01-25T07:45:59;96915.59;;;1.01;81.28
70684;BME280;58263;48.146;11.440;2023-01-25T07:48:25;96924.19;;;1.04;81.15
70684;BME280;58263;48.146;11.440;2023-01-25T07:50:50;96919.19;;;1.00;81.46
70684;BME280;58263;48.146;11.440;2023-01-25T07:53:35;96923.66;;;1.00;81.39
70684;BME280;58263;48.146;11.440;2023-01-25T07:56:01;96922.78;;;0.99;81.22
70684;BME280;58263;48.146;11.440;2023-01-25T07:58:26;96920.72;;;1.03;81.09
70684;BME280;58263;48.146;11.440;2023-01-25T08:00:51;96923.66;;;1.00;81.01
70684;BME280;58263;48.146;11.440;2023-01-25T08:03:17;96921.84;;;1.00;81.07
70684;BME280;58263;48.146;11.440;2023-01-25T08:05:47;96927.53;;;1.06;81.16
70684;BME280;58263;48.146;11.440;2023-01-25T08:08:12;96928.50;;;1.05;81.17
70684;BME280;58263;48.146;11.440;2023-01-25T08:10:38;96931.44;;;1.01;81.26
70684;BME280;58263;48.146;11.440;2023-01-25T08:13:04;96924.47;;;1.00;81.07
70684;BME280;58263;48.146;11.440;2023-01-25T08:15:31;96923.66;;;1.00;80.92
70684;BME280;58263;48.146;11.440;2023-01-25T08:17:59;96922.25;;;0.96;80.90
70684;BME280;58263;48.146;11.440;2023-01-25T08:20:25;96926.69;;;0.95;80.82
70684;BME280;58263;48.146;11.440;2023-01-25T08:22:51;96927.25;;;0.99;80.90
70684;BME280;58263;48.146;11.440;2023-01-25T08:25:16;96921.84;;;1.00;80.84
70684;BME280;58263;48.146;11.440;2023-01-25T08:27:41;96927.81;;;1.03;80.36
70684;BME280;58263;48.146;11.440;2023-01-25T08:30:08;96916.41;;;1.02;80.77
70684;BME280;58263;48.146;11.440;2023-01-25T08:32:36;96916.97;;;1.06;80.59
70684;BME280;58263;48.146;11.440;2023-01-25T08:35:01;96922.25;;;1.06;80.44
70684;BME280;58263;48.146;11.440;2023-01-25T08:37:26;96916.97;;;1.06;80.75
70684;BME280;58263;48.146;11.440;2023-01-25T08:39:54;96914.88;;;1.09;80.67
70684;BME280;58263;48.146;11.440;2023-01-25T08:42:21;96909.44;;;1.11;80.54
70684;BME280;58263;48.146;11.440;2023-01-25T08:44:47;96913.78;;;1.12;80.39
70684;BME280;58263;48.146;11.440;2023-01-25T08:47:12;96914.03;;;1.09;80.03
70684;BME280;58263;48.146;11.440;2023-01-25T08:49:37;96901.38;;;1.12;79.99
70684;BME280;58263;48.146;11.440;2023-01-25T08:52:03;96907.94;;;1.08;79.98
70684;BME280;58263;48.146;11.440;2023-01-25T08:54:28;96903.31;;;1.10;80.28
70684;BME280;58263;48.146;11.440;2023-01-25T08:56:54;96905.00;;;1.11;79.95
70684;BME280;58263;48.146;11.440;2023-01-25T08:59:19;96905.69;;;1.13;80.36
70684;BME280;58263;48.146;11.440;2023-01-25T09:01:44;96907.50;;;1.13;80.11
70684;BME280;58263;48.146;11.440;2023-01-25T09:04:10;96906.66;;;1.12;80.23
70684;BME280;58263;48.146;11.440;2023-01-25T09:06:35;96906.66;;;1.12;80.19
70684;BME280;58263;48.146;11.440;2023-01-25T09:09:00;96903.47;;;1.09;80.05
70684;BME280;58263;48.146;11.440;2023-01-25T09:11:26;96898.59;;;1.14;80.10
70684;BME280;58263;48.146;11.440;2023-01-25T09:13:51;96894.97;;;1.15;79.88
70684;BME280;58263;48.146;11.440;2023-01-25T09:16:20;96888.03;;;1.14;80.17
70684;BME280;58263;48.146;11.440;2023-01-25T09:18:52;96886.34;;;1.13;79.93
70684;BME280;58263;48.146;11.440;2023-01-25T09:21:18;96889.69;;;1.15;80.14
70684;BME280;58263;48.146;11.440;2023-01-25T09:23:46;96885.09;;;1.17;80.31
70684;BME280;58263;48.146;11.440;2023-01-25T09:26:13;96889.00;;;1.13;80.22
70684;BME280;58263;48.146;11.440;2023-01-25T09:28:40;96889.41;;;1.18;80.10
70684;BME280;58263;48.146;11.440;2023-01-25T09:31:06;96884.72;;;1.12;80.33
70684;BME280;58263;48.146;11.440;2023-01-25T09:33:36;96888.44;;;1.19;80.28
70684;BME280;58263;48.146;11.440;2023-01-25T09:36:02;96881.03;;;1.23;80.13
70684;BME280;58263;48.146;11.440;2023-01-25T09:38:28;96882.19;;;1.20;79.79
70684;BME280;58263;48.146;11.440;2023-01-25T09:41:06;96887.72;;;1.17;80.15
70684;BME280;58263;48.146;11.440;2023-01-25T09:49:34;96882.44;;;1.17;80.36
70684;BME280;58263;48.146;11.440;2023-01-25T09:54:53;96884.69;;;1.22;79.92
70684;BME280;58263;48.146;11.440;2023-01-25T09:57:24;96875.50;;;1.16;80.11
70684;BME280;58263;48.146;11.440;2023-01-25T09:59:51;96875.78;;;1.13;80.24
70684;BME280;58263;48.146;11.440;2023-01-25T10:05:23;96874.50;;;1.17;80.22
70684;BME280;58263;48.146;11.440;2023-01-25T10:08:07;96867.00;;;1.22;79.93
70684;BME280;58263;48.146;11.440;2023-01-25T10:10:40;96864.34;;;1.22;79.71
70684;BME280;58263;48.146;11.440;2023-01-25T10:13:18;96856.03;;;1.17;79.80
70684;BME280;58263;48.146;11.440;2023-01-25T10:15:49;96856.31;;;1.14;79.90
70684;BME280;58263;48.146;11.440;2023-01-25T10:21:25;96861.03;;;1.20;80.19
70684;BME280;58263;48.146;11.440;2023-01-25T10:24:26;96863.56;;;1.12;80.42
70684;BME280;58263;48.146;11.440;2023-01-25T10:26:57;96860.22;;;1.10;80.13
70684;BME280;58263;48.146;11.440;2023-01-25T10:29:28;96854.38;;;1.06;80.26
70684;BME280;58263;48.146;11.440;2023-01-25T10:32:11;96851.59;;;1.08;80.32
70684;BME280;58263;48.146;11.440;2023-01-25T10:34:47;96837.41;;;1.09;80.59
70684;BME280;58263;48.146;11.440;2023-01-25T10:37:16;96841.03;;;1.08;80.65
70684;BME280;58263;48.146;11.440;2023-01-25T10:39:54;96841.28;;;1.14;80.35
70684;BME280;58263;48.146;11.440;2023-01-25T10:42:21;96833.50;;;1.13;80.23
70684;BME280;58263;48.146;11.440;2023-01-25T10:44:50;96831.72;;;1.04;80.53
70684;BME280;58263;48.146;11.440;2023-01-25T10:47:32;96828.41;;;1.01;80.44
70684;BME280;58263;48.146;11.440;2023-01-25T10:49:59;96826.16;;;1.07;80.42
70684;BME280;58263;48.146;11.440;2023-01-25T10:52:31;96820.44;;;1.11;80.46
70684;BME280;58263;48.146;11.440;2023-01-25T10:55:16;96825.72;;;1.11;79.88
70684;BME280;58263;48.146;11.440;2023-01-25T10:57:43;96817.94;;;1.10;80.41
70684;BME280;58263;48.146;11.440;2023-01-25T11:00:24;96811.28;;;1.06;80.49
70684;BME280;58263;48.146;11.440;2023-01-25T11:02:52;96814.59;;;1.08;80.02
70684;BME280;58263;48.146;11.440;2023-01-25T11:07:43;96802.66;;;1.04;80.06
70684;BME280;58263;48.146;11.440;2023-01-25T11:15:41;96786.19;;;1.20;79.73
70684;BME280;58263;48.146;11.440;2023-01-25T11:18:29;96787.63;;;1.14;80.18
70684;BME280;58263;48.146;11.440;2023-01-25T11:23:30;96771.75;;;1.14;79.63
70684;BME280;58263;48.146;11.440;2023-01-25T11:26:10;96772.72;;;1.13;79.18
70684;BME280;58263;48.146;11.440;2023-01-25T11:28:36;96772.06;;;1.11;79.51
70684;BME280;58263;48.146;11.440;2023-01-25T11:31:01;96773.34;;;1.07;79.36
70684;BME280;58263;48.146;11.440;2023-01-25T11:33:27;96772.31;;;1.08;79.56
70684;BME280;58263;48.146;11.440;2023-01-25T11:39:03;96755.69;;;0.97;80.20
70684;BME280;58263;48.146;11.440;2023-01-25T11:41:38;96752.44;;;1.13;80.02
70684;BME280;58263;48.146;11.440;2023-01-25T11:49:44;96736.13;;;1.18;79.92
70684;BME280;58263;48.146;11.440;2023-01-25T11:58:01;96714.34;;;1.16;80.30
70684;BME280;58263;48.146;11.440;2023-01-25T12:03:18;96696.09;;;1.13;80.11
70684;BME280;58263;48.146;11.440;2023-01-25T12:06:07;96700.13;;;1.17;80.16
70684;BME280;58263;48.146;11.440;2023-01-25T12:11:35;96691.53;;;1.15;79.53
70684;BME280;58263;48.146;11.440;2023-01-25T12:19:41;96675.59;;;1.07;78.99
70684;BME280;58263;48.146;11.440;2023-01-25T12:22:33;96670.16;;;1.08;79.18
70684;BME280;58263;48.146;11.440;2023-01-25T12:28:16;96662.75;;;1.12;79.23
70684;BME280;58263;48.146;11.440;2023-01-25T12:30:50;96661.09;;;1.11;79.26
70684;BME280;58263;48.146;11.440;2023-01-25T12:33:48;96657.75;;;1.09;79.15
70684;BME280;58263;48.146;11.440;2023-01-25T12:39:09;96643.97;;;1.15;79.28
70684;BME280;58263;48.146;11.440;2023-01-25T12:44:42;96644.94;;;1.14;79.61
70684;BME280;58263;48.146;11.440;2023-01-25T12:47:19;96636.03;;;1.15;79.08
70684;BME280;58263;48.146;11.440;2023-01-25T12:49:58;96636.63;;;1.09;79.26
70684;BME280;58263;48.146;11.440;2023-01-25T12:54:58;96633.69;;;1.12;79.05
70684;BME280;58263;48.146;11.440;2023-01-25T13:00:21;96616.84;;;1.13;79.53
70684;BME280;58263;48.146;11.440;2023-01-25T13:03:21;96617.97;;;1.10;79.65
70684;BME280;58263;48.146;11.440;2023-01-25T13:11:22;96618.38;;;1.15;79.92
70684;BME280;58263;48.146;11.440;2023-01-25T13:13:49;96615.72;;;1.15;79.44
70684;BME280;58263;48.146;11.440;2023-01-25T13:16:33;96611.56;;;1.13;79.02
70684;BME280;58263;48.146;11.440;2023-01-25T13:19:00;96604.91;;;1.09;79.02
70684;BME280;58263;48.146;11.440;2023-01-25T13:21:46;96603.63;;;1.13;79.05
70684;BME280;58263;48.146;11.440;2023-01-25T13:32:12;96603.22;;;1.17;79.64
70684;BME280;58263;48.146;11.440;2023-01-25T13:39:42;96597.75;;;1.19;79.59
70684;BME280;58263;48.146;11.440;2023-01-25T13:44:35;96599.63;;;1.09;80.76
70684;BME280;58263;48.146;11.440;2023-01-25T13:47:05;96594.88;;;1.12;81.14
70684;BME280;58263;48.146;11.440;2023-01-25T13:52:26;96581.53;;;1.14;80.92
70684;BME280;58263;48.146;11.440;2023-01-25T13:54:56;96578.50;;;1.09;80.81
70684;BME280;58263;48.146;11.440;2023-01-25T13:57:24;96581.84;;;1.11;80.80
70684;BME280;58263;48.146;11.440;2023-01-25T14:00:12;96579.63;;;1.06;80.89
70684;BME280;58263;48.146;11.440;2023-01-25T14:02:45;96572.94;;;1.12;80.76
70684;BME280;58263;48.146;11.440;2023-01-25T14:05:20;96578.72;;;1.15;80.25
70684;BME280;58263;48.146;11.440;2023-01-25T14:07:48;96576.25;;;1.14;79.88
70684;BME280;58263;48.146;11.440;2023-01-25T14:10:17;96572.94;;;1.12;79.40
70684;BME280;58263;48.146;11.440;2023-01-25T14:12:47;96571.13;;;1.12;79.90
70684;BME280;58263;48.146;11.440;2023-01-25T14:15:22;96574.88;;;1.10;80.19
70684;BME280;58263;48.146;11.440;2023-01-25T14:18:05;96568.47;;;1.12;80.05
70684;BME280;58263;48.146;11.440;2023-01-25T14:20:34;96568.78;;;1.09;80.20
70684;BME280;58263;48.146;11.440;2023-01-25T14:22:59;96567.94;;;1.09;80.49
70684;BME280;58263;48.146;11.440;2023-01-25T14:25:24;96572.41;;;1.08;80.30
70684;BME280;58263;48.146;11.440;2023-01-25T14:27:52;96566.72;;;1.03;80.57
70684;BME280;58263;48.146;11.440;2023-01-25T14:32:43;96563.78;;;1.06;80.35
70684;BME280;58263;48.146;11.440;2023-01-25T14:35:30;96556.84;;;1.05;80.80
70684;BME280;58263;48.146;11.440;2023-01-25T14:37:56;96552.69;;;1.03;80.99
70684;BME280;58263;48.146;11.440;2023-01-25T14:40:23;96547.09;;;1.06;81.29
70684;BME280;58263;48.146;11.440;2023-01-25T14:42:50;96545.75;;;1.01;81.21
70684;BME280;58263;48.146;11.440;2023-01-25T14:45:17;96545.59;;;1.03;81.35